sensor_id;sensor_type;location;lat;lon;timestamp;temperature;humidity
10249;DHT22;5169;50.560;9.714;2023-04-24T00:00:06;11.10;99.90
10249;DHT22;5169;50.560;9.714;2023-04-24T00:02:34;11.20;99.90
10249;DHT22;5169;50.560;9.714;2023-04-24T00:05:02;11.20;99.90
10249;DHT22;5169;50.560;9.714;2023-04-24T00:07:27;11.20;99.90
10249;DHT22;5169;50.560;9.714;2023-04-24T00:09:53;11.10;99.90
10249;DHT22;5169;50.560;9.714;2023-04-24T00:12:18;11.10;99.90
10249;DHT22;5169;50.560;9.714;2023-04-24T00:14:44;11.10;99.90
10249;DHT22;5169;50.560;9.714;2023-04-24T00:17:12;11.10;99.90
10249;DHT22;5169;50.560;9.714;2023-04-24T00:19:39;11.10;99.90
10249;DHT22;5169;50.560;9.714;2023-04-24T00:22:05;11.10;99.90
10249;DHT22;5169;50.560;9.714;2023-04-24T00:24:31;11.10;99.90
10249;DHT22;5169;50.560;9.714;2023-04-24T00:26:59;11.10;99.90
10249;DHT22;5169;50.560;9.714;2023-04-24T00:29:26;11.00;99.90
10249;DHT22;5169;50.560;9.714;2023-04-24T00:31:51;11.10;99.90
10249;DHT22;5169;50.560;9.714;2023-04-24T00:34:19;11.10;99.90
10249;DHT22;5169;50.560;9.714;2023-04-24T00:36:47;11.10;99.90
10249;DHT22;5169;50.560;9.714;2023-04-24T00:39:18;11.10;99.90
10249;DHT22;5169;50.560;9.714;2023-04-24T00:41:48;11.20;99.90
10249;DHT22;5169;50.560;9.714;2023-04-24T00:44:14;11.20;99.90
10249;DHT22;5169;50.560;9.714;2023-04-24T00:46:43;11.30;99.90
10249;DHT22;5169;50.560;9.714;2023-04-24T00:49:08;11.20;99.90
10249;DHT22;5169;50.560;9.714;2023-04-24T00:51:34;11.20;99.90
10249;DHT22;5169;50.560;9.714;2023-04-24T00:54:00;11.30;99.90
10249;DHT22;5169;50.560;9.714;2023-04-24T00:56:26;11.20;99.90
10249;DHT22;5169;50.560;9.714;2023-04-24T00:58:52;11.20;99.90
10249;DHT22;5169;50.560;9.714;2023-04-24T01:01:20;11.20;99.90
10249;DHT22;5169;50.560;9.714;2023-04-24T01:03:47;11.20;99.90
10249;DHT22;5169;50.560;9.714;2023-04-24T01:06:16;11.20;99.90
10249;DHT22;5169;50.560;9.714;2023-04-24T01:08:43;11.20;99.90
10249;DHT22;5169;50.560;9.714;2023-04-24T01:11:13;11.20;99.90
10249;DHT22;5169;50.560;9.714;2023-04-24T01:13:39;11.20;99.90
10249;DHT22;5169;50.560;9.714;2023-04-24T01:16:07;11.20;99.90
10249;DHT22;5169;50.560;9.714;2023-04-24T01:18:33;11.10;99.90
10249;DHT22;5169;50.560;9.714;2023-04-24T01:21:02;11.10;99.90
10249;DHT22;5169;50.560;9.714;2023-04-24T01:23:28;11.10;99.90
10249;DHT22;5169;50.560;9.714;2023-04-24T01:25:54;11.20;99.90
10249;DHT22;5169;50.560;9.714;2023-04-24T01:28:20;11.20;99.90
10249;DHT22;5169;50.560;9.714;2023-04-24T01:30:48;11.00;99.90
10249;DHT22;5169;50.560;9.714;2023-04-24T01:33:14;10.90;99.90
10249;DHT22;5169;50.560;9.714;2023-04-24T01:35:42;10.90;99.90
10249;DHT22;5169;50.560;9.714;2023-04-24T01:38:08;11.00;99.90
10249;DHT22;5169;50.560;9.714;2023-04-24T01:40:38;11.00;99.90
10249;DHT22;5169;50.560;9.714;2023-04-24T01:43:07;11.10;99.90
10249;DHT22;5169;50.560;9.714;2023-04-24T01:45:32;11.00;99.90
10249;DHT22;5169;50.560;9.714;2023-04-24T01:47:58;10.90;99.90
10249;DHT22;5169;50.560;9.714;2023-04-24T01:50:25;11.00;99.90
10249;DHT22;5169;50.560;9.714;2023-04-24T01:52:51;11.00;99.90
10249;DHT22;5169;50.560;9.714;2023-04-24T01:55:17;11.00;99.90
10249;DHT22;5169;50.560;9.714;2023-04-24T01:57:42;11.00;99.90
10249;DHT22;5169;50.560;9.714;2023-04-24T02:00:08;11.00;99.90
10249;DHT22;5169;50.560;9.714;2023-04-24T02:02:36;11.10;99.90
10249;DHT22;5169;50.560;9.714;2023-04-24T02:05:02;11.10;99.90
10249;DHT22;5169;50.560;9.714;2023-04-24T02:07:28;11.10;99.90
10249;DHT22;5169;50.560;9.714;2023-04-24T02:09:53;11.10;99.90
10249;DHT22;5169;50.560;9.714;2023-04-24T02:12:23;11.20;99.90
10249;DHT22;5169;50.560;9.714;2023-04-24T02:14:48;11.20;99.90
10249;DHT22;5169;50.560;9.714;2023-04-24T02:17:14;11.10;99.90
10249;DHT22;5169;50.560;9.714;2023-04-24T02:19:43;11.20;99.90
10249;DHT22;5169;50.560;9.714;2023-04-24T02:22:11;11.20;99.90
10249;DHT22;5169;50.560;9.714;2023-04-24T02:24:37;11.20;99.90
10249;DHT22;5169;50.560;9.714;2023-04-24T02:27:03;11.10;99.90
10249;DHT22;5169;50.560;9.714;2023-04-24T02:29:29;11.10;99.90
10249;DHT22;5169;50.560;9.714;2023-04-24T02:31:54;11.10;99.90
10249;DHT22;5169;50.560;9.714;2023-04-24T02:34:22;11.10;99.90
10249;DHT22;5169;50.560;9.714;2023-04-24T02:36:48;11.10;99.90
10249;DHT22;5169;50.560;9.714;2023-04-24T02:39:14;11.10;99.90
10249;DHT22;5169;50.560;9.714;2023-04-24T02:41:42;11.10;99.90
10249;DHT22;5169;50.560;9.714;2023-04-24T02:44:08;11.00;99.90
10249;DHT22;5169;50.560;9.714;2023-04-24T02:46:33;11.00;99.90
10249;DHT22;5169;50.560;9.714;2023-04-24T02:49:01;10.90;99.90
10249;DHT22;5169;50.560;9.714;2023-04-24T02:51:27;10.90;99.90
10249;DHT22;5169;50.560;9.714;2023-04-24T02:53:54;10.90;99.90
10249;DHT22;5169;50.560;9.714;2023-04-24T02:56:20;10.90;99.90
10249;DHT22;5169;50.560;9.714;2023-04-24T02:58:45;10.90;99.90
10249;DHT22;5169;50.560;9.714;2023-04-24T03:01:11;10.90;99.90
10249;DHT22;5169;50.560;9.714;2023-04-24T03:03:38;10.90;99.90
10249;DHT22;5169;50.560;9.714;2023-04-24T03:06:03;10.90;99.90
10249;DHT22;5169;50.560;9.714;2023-04-24T03:08:31;10.90;99.90
10249;DHT22;5169;50.560;9.714;2023-04-24T03:10:59;10.80;99.90
10249;DHT22;5169;50.560;9.714;2023-04-24T03:13:25;10.70;99.90
10249;DHT22;5169;50.560;9.714;2023-04-24T03:15:50;10.70;99.90
10249;DHT22;5169;50.560;9.714;2023-04-24T03:18:16;10.50;99.90
10249;DHT22;5169;50.560;9.714;2023-04-24T03:20:48;10.40;99.90
10249;DHT22;5169;50.560;9.714;2023-04-24T03:23:13;10.40;99.90
10249;DHT22;5169;50.560;9.714;2023-04-24T03:25:41;10.40;99.90
10249;DHT22;5169;50.560;9.714;2023-04-24T03:28:12;10.30;99.90
10249;DHT22;5169;50.560;9.714;2023-04-24T03:30:40;10.30;99.90
10249;DHT22;5169;50.560;9.714;2023-04-24T03:33:08;10.30;99.90
10249;DHT22;5169;50.560;9.714;2023-04-24T03:35:35;10.20;99.90
10249;DHT22;5169;50.560;9.714;2023-04-24T03:38:01;10.30;99.90
10249;DHT22;5169;50.560;9.714;2023-04-24T03:40:27;10.40;99.90
10249;DHT22;5169;50.560;9.714;2023-04-24T03:42:57;10.30;99.90
10249;DHT22;5169;50.560;9.714;2023-04-24T03:45:22;10.40;99.90
10249;DHT22;5169;50.560;9.714;2023-04-24T03:47:48;10.30;99.90
10249;DHT22;5169;50.560;9.714;2023-04-24T03:50:15;10.40;99.90
10249;DHT22;5169;50.560;9.714;2023-04-24T03:52:41;10.40;99.90
10249;DHT22;5169;50.560;9.714;2023-04-24T03:55:07;10.60;99.90
10249;DHT22;5169;50.560;9.714;2023-04-24T03:57:35;10.60;99.90
10249;DHT22;5169;50.560;9.714;2023-04-24T04:00:03;10.50;99.90
10249;DHT22;5169;50.560;9.714;2023-04-24T04:02:30;10.50;99.90
10249;DHT22;5169;50.560;9.714;2023-04-24T04:05:00;10.60;99.90
10249;DHT22;5169;50.560;9.714;2023-04-24T04:07:26;10.60;99.90
10249;DHT22;5169;50.560;9.714;2023-04-24T04:09:51;10.60;99.90
10249;DHT22;5169;50.560;9.714;2023-04-24T04:12:17;10.60;99.90
10249;DHT22;5169;50.560;9.714;2023-04-24T04:14:45;10.70;99.90
10249;DHT22;5169;50.560;9.714;2023-04-24T04:17:11;10.70;99.90
10249;DHT22;5169;50.560;9.714;2023-04-24T04:19:38;10.80;99.90
10249;DHT22;5169;50.560;9.714;2023-04-24T04:22:04;10.80;99.90
10249;DHT22;5169;50.560;9.714;2023-04-24T04:24:29;10.80;99.90
10249;DHT22;5169;50.560;9.714;2023-04-24T04:26:55;10.80;99.90
10249;DHT22;5169;50.560;9.714;2023-04-24T04:29:25;10.80;99.90
10249;DHT22;5169;50.560;9.714;2023-04-24T04:31:53;10.80;99.90
10249;DHT22;5169;50.560;9.714;2023-04-24T04:34:21;10.80;99.90
10249;DHT22;5169;50.560;9.714;2023-04-24T04:36:48;10.80;99.90
10249;DHT22;5169;50.560;9.714;2023-04-24T04:39:13;10.70;99.90
10249;DHT22;5169;50.560;9.714;2023-04-24T04:41:40;10.70;99.90
10249;DHT22;5169;50.560;9.714;2023-04-24T04:44:06;10.70;99.90
10249;DHT22;5169;50.560;9.714;2023-04-24T04:46:34;10.70;99.90
10249;DHT22;5169;50.560;9.714;2023-04-24T04:49:00;10.70;99.90
10249;DHT22;5169;50.560;9.714;2023-04-24T04:51:27;10.70;99.90
10249;DHT22;5169;50.560;9.714;2023-04-24T04:53:52;10.70;99.90
10249;DHT22;5169;50.560;9.714;2023-04-24T04:56:18;10.70;99.90
10249;DHT22;5169;50.560;9.714;2023-04-24T04:58:48;10.60;99.90
10249;DHT22;5169;50.560;9.714;2023-04-24T05:01:13;10.50;99.90
10249;DHT22;5169;50.560;9.714;2023-04-24T05:03:39;10.40;99.90
10249;DHT22;5169;50.560;9.714;2023-04-24T05:06:05;10.50;99.90
10249;DHT22;5169;50.560;9.714;2023-04-24T05:08:31;10.60;99.90
10249;DHT22;5169;50.560;9.714;2023-04-24T05:11:04;10.60;99.90
10249;DHT22;5169;50.560;9.714;2023-04-24T05:13:30;10.60;99.90
10249;DHT22;5169;50.560;9.714;2023-04-24T05:15:55;10.70;99.90
10249;DHT22;5169;50.560;9.714;2023-04-24T05:18:21;10.50;99.90
10249;DHT22;5169;50.560;9.714;2023-04-24T05:20:46;10.60;99.90
10249;DHT22;5169;50.560;9.714;2023-04-24T05:23:12;10.40;99.90
10249;DHT22;5169;50.560;9.714;2023-04-24T05:25:37;10.30;99.90
10249;DHT22;5169;50.560;9.714;2023-04-24T05:28:05;10.20;99.90
10249;DHT22;5169;50.560;9.714;2023-04-24T05:30:31;10.10;99.90
10249;DHT22;5169;50.560;9.714;2023-04-24T05:32:56;10.10;99.90
10249;DHT22;5169;50.560;9.714;2023-04-24T05:35:24;10.10;99.90
10249;DHT22;5169;50.560;9.714;2023-04-24T05:37:52;10.10;99.90
10249;DHT22;5169;50.560;9.714;2023-04-24T05:40:18;10.10;99.90
10249;DHT22;5169;50.560;9.714;2023-04-24T05:42:43;10.10;99.90
10249;DHT22;5169;50.560;9.714;2023-04-24T05:45:12;10.10;99.90
10249;DHT22;5169;50.560;9.714;2023-04-24T05:47:42;10.10;99.90
10249;DHT22;5169;50.560;9.714;2023-04-24T05:50:09;10.20;99.90
10249;DHT22;5169;50.560;9.714;2023-04-24T05:52:37;10.30;99.90
10249;DHT22;5169;50.560;9.714;2023-04-24T05:55:03;10.30;99.90
10249;DHT22;5169;50.560;9.714;2023-04-24T05:57:29;10.30;99.90
10249;DHT22;5169;50.560;9.714;2023-04-24T05:59:57;10.40;99.90
10249;DHT22;5169;50.560;9.714;2023-04-24T06:02:25;10.50;99.90
10249;DHT22;5169;50.560;9.714;2023-04-24T06:04:58;10.80;99.90
10249;DHT22;5169;50.560;9.714;2023-04-24T06:07:25;11.40;99.90
10249;DHT22;5169;50.560;9.714;2023-04-24T06:09:57;12.20;99.90
10249;DHT22;5169;50.560;9.714;2023-04-24T06:12:23;12.70;99.90
10249;DHT22;5169;50.560;9.714;2023-04-24T06:14:48;12.40;99.90
10249;DHT22;5169;50.560;9.714;2023-04-24T06:17:15;11.90;99.90
10249;DHT22;5169;50.560;9.714;2023-04-24T06:19:44;11.90;99.90
10249;DHT22;5169;50.560;9.714;2023-04-24T06:22:09;12.50;99.90
10249;DHT22;5169;50.560;9.714;2023-04-24T06:24:35;12.90;99.90
10249;DHT22;5169;50.560;9.714;2023-04-24T06:27:01;13.10;99.90
10249;DHT22;5169;50.560;9.714;2023-04-24T06:29:27;12.90;99.90
10249;DHT22;5169;50.560;9.714;2023-04-24T06:31:59;12.80;99.90
10249;DHT22;5169;50.560;9.714;2023-04-24T06:34:25;13.20;99.90
10249;DHT22;5169;50.560;9.714;2023-04-24T06:36:51;13.40;99.90
10249;DHT22;5169;50.560;9.714;2023-04-24T06:39:22;13.60;99.90
10249;DHT22;5169;50.560;9.714;2023-04-24T06:41:58;13.90;99.90
10249;DHT22;5169;50.560;9.714;2023-04-24T06:44:24;14.20;99.90
10249;DHT22;5169;50.560;9.714;2023-04-24T06:46:52;14.20;99.90
10249;DHT22;5169;50.560;9.714;2023-04-24T06:49:20;14.00;99.90
10249;DHT22;5169;50.560;9.714;2023-04-24T06:51:46;13.70;99.90
10249;DHT22;5169;50.560;9.714;2023-04-24T06:54:11;13.60;99.90
10249;DHT22;5169;50.560;9.714;2023-04-24T06:56:38;13.20;99.90
10249;DHT22;5169;50.560;9.714;2023-04-24T06:59:03;13.20;99.90
10249;DHT22;5169;50.560;9.714;2023-04-24T07:01:29;13.40;99.90
10249;DHT22;5169;50.560;9.714;2023-04-24T07:04:02;13.50;99.90
10249;DHT22;5169;50.560;9.714;2023-04-24T07:06:28;13.60;99.90
10249;DHT22;5169;50.560;9.714;2023-04-24T07:08:57;13.60;99.90
10249;DHT22;5169;50.560;9.714;2023-04-24T07:11:27;13.60;99.90
10249;DHT22;5169;50.560;9.714;2023-04-24T07:13:57;13.70;99.90
10249;DHT22;5169;50.560;9.714;2023-04-24T07:16:25;13.70;99.90
10249;DHT22;5169;50.560;9.714;2023-04-24T07:18:56;13.60;99.90
10249;DHT22;5169;50.560;9.714;2023-04-24T07:21:22;13.70;99.90
10249;DHT22;5169;50.560;9.714;2023-04-24T07:23:47;13.50;99.90
10249;DHT22;5169;50.560;9.714;2023-04-24T07:26:13;13.50;99.90
10249;DHT22;5169;50.560;9.714;2023-04-24T07:28:47;13.40;99.90
10249;DHT22;5169;50.560;9.714;2023-04-24T07:31:13;13.40;99.90
10249;DHT22;5169;50.560;9.714;2023-04-24T07:33:38;13.50;99.90
10249;DHT22;5169;50.560;9.714;2023-04-24T07:36:04;13.60;99.90
10249;DHT22;5169;50.560;9.714;2023-04-24T07:38:33;13.70;99.90
10249;DHT22;5169;50.560;9.714;2023-04-24T07:41:01;13.60;99.50
10249;DHT22;5169;50.560;9.714;2023-04-24T07:43:26;13.00;99.90
10249;DHT22;5169;50.560;9.714;2023-04-24T07:45:52;13.00;99.90
10249;DHT22;5169;50.560;9.714;2023-04-24T07:48:24;13.20;99.90
10249;DHT22;5169;50.560;9.714;2023-04-24T07:50:52;13.30;99.90
10249;DHT22;5169;50.560;9.714;2023-04-24T07:53:23;13.60;99.80
10249;DHT22;5169;50.560;9.714;2023-04-24T07:55:57;14.00;99.90
10249;DHT22;5169;50.560;9.714;2023-04-24T07:58:25;14.00;99.60
10249;DHT22;5169;50.560;9.714;2023-04-24T08:00:59;14.10;99.90
10249;DHT22;5169;50.560;9.714;2023-04-24T08:03:27;14.00;99.40
10249;DHT22;5169;50.560;9.714;2023-04-24T08:05:53;14.10;99.60
10249;DHT22;5169;50.560;9.714;2023-04-24T08:08:25;14.10;99.60
10249;DHT22;5169;50.560;9.714;2023-04-24T08:10:56;13.70;98.90
10249;DHT22;5169;50.560;9.714;2023-04-24T08:13:24;13.30;99.30
10249;DHT22;5169;50.560;9.714;2023-04-24T08:15:50;13.20;99.80
10249;DHT22;5169;50.560;9.714;2023-04-24T08:18:15;13.00;99.90
10249;DHT22;5169;50.560;9.714;2023-04-24T08:20:47;13.20;99.90
10249;DHT22;5169;50.560;9.714;2023-04-24T08:23:12;13.20;99.70
10249;DHT22;5169;50.560;9.714;2023-04-24T08:25:40;13.00;99.90
10249;DHT22;5169;50.560;9.714;2023-04-24T08:28:09;12.80;99.90
10249;DHT22;5169;50.560;9.714;2023-04-24T08:30:36;12.70;99.90
10249;DHT22;5169;50.560;9.714;2023-04-24T08:33:02;12.80;99.90
10249;DHT22;5169;50.560;9.714;2023-04-24T08:35:27;13.00;99.90
10249;DHT22;5169;50.560;9.714;2023-04-24T08:37:59;12.70;99.90
10249;DHT22;5169;50.560;9.714;2023-04-24T08:40:28;12.50;99.90
10249;DHT22;5169;50.560;9.714;2023-04-24T08:42:59;12.40;99.90
10249;DHT22;5169;50.560;9.714;2023-04-24T08:45:27;12.40;99.90
10249;DHT22;5169;50.560;9.714;2023-04-24T08:48:00;12.80;99.90
10249;DHT22;5169;50.560;9.714;2023-04-24T08:50:28;13.50;99.90
10249;DHT22;5169;50.560;9.714;2023-04-24T08:53:04;14.00;99.90
10249;DHT22;5169;50.560;9.714;2023-04-24T08:55:33;14.50;99.40
10249;DHT22;5169;50.560;9.714;2023-04-24T08:58:04;14.60;99.10
10249;DHT22;5169;50.560;9.714;2023-04-24T09:00:35;14.70;98.50
10249;DHT22;5169;50.560;9.714;2023-04-24T09:03:02;14.50;97.50
10249;DHT22;5169;50.560;9.714;2023-04-24T09:05:28;14.40;97.40
10249;DHT22;5169;50.560;9.714;2023-04-24T09:07:58;14.90;97.90
10249;DHT22;5169;50.560;9.714;2023-04-24T09:10:27;14.60;96.60
10249;DHT22;5169;50.560;9.714;2023-04-24T09:12:58;14.40;97.60
10249;DHT22;5169;50.560;9.714;2023-04-24T09:15:27;14.60;97.90
10249;DHT22;5169;50.560;9.714;2023-04-24T09:18:00;14.60;97.90
10249;DHT22;5169;50.560;9.714;2023-04-24T09:20:26;14.40;97.80
10249;DHT22;5169;50.560;9.714;2023-04-24T09:22:59;14.50;97.10
10249;DHT22;5169;50.560;9.714;2023-04-24T09:25:34;14.50;97.40
10249;DHT22;5169;50.560;9.714;2023-04-24T09:28:02;14.30;97.60
10249;DHT22;5169;50.560;9.714;2023-04-24T09:30:29;14.30;96.80
10249;DHT22;5169;50.560;9.714;2023-04-24T09:33:14;14.40;96.40
10249;DHT22;5169;50.560;9.714;2023-04-24T09:35:41;14.10;97.50
10249;DHT22;5169;50.560;9.714;2023-04-24T09:38:10;14.10;97.60
10249;DHT22;5169;50.560;9.714;2023-04-24T09:40:39;13.90;97.40
10249;DHT22;5169;50.560;9.714;2023-04-24T09:43:10;13.60;98.30
10249;DHT22;5169;50.560;9.714;2023-04-24T09:45:39;13.40;99.20
10249;DHT22;5169;50.560;9.714;2023-04-24T09:48:05;13.20;99.60
10249;DHT22;5169;50.560;9.714;2023-04-24T09:50:37;13.00;99.30
10249;DHT22;5169;50.560;9.714;2023-04-24T09:53:13;12.70;99.50
10249;DHT22;5169;50.560;9.714;2023-04-24T09:55:48;12.70;99.80
10249;DHT22;5169;50.560;9.714;2023-04-24T09:58:15;12.50;99.90
10249;DHT22;5169;50.560;9.714;2023-04-24T10:00:41;12.30;99.90
10249;DHT22;5169;50.560;9.714;2023-04-24T10:03:14;12.10;99.90
10249;DHT22;5169;50.560;9.714;2023-04-24T10:05:40;12.00;99.90
10249;DHT22;5169;50.560;9.714;2023-04-24T10:08:08;11.90;99.90
10249;DHT22;5169;50.560;9.714;2023-04-24T10:10:47;11.70;99.90
10249;DHT22;5169;50.560;9.714;2023-04-24T10:13:14;11.70;99.90
10249;DHT22;5169;50.560;9.714;2023-04-24T10:15:47;11.50;99.90
10249;DHT22;5169;50.560;9.714;2023-04-24T10:18:13;11.40;99.90
10249;DHT22;5169;50.560;9.714;2023-04-24T10:20:40;11.40;99.90
10249;DHT22;5169;50.560;9.714;2023-04-24T10:23:13;11.50;99.90
10249;DHT22;5169;50.560;9.714;2023-04-24T10:25:39;11.60;99.90
10249;DHT22;5169;50.560;9.714;2023-04-24T10:28:05;11.50;99.90
10249;DHT22;5169;50.560;9.714;2023-04-24T10:30:37;11.60;99.90
10249;DHT22;5169;50.560;9.714;2023-04-24T10:33:06;11.60;99.90
10249;DHT22;5169;50.560;9.714;2023-04-24T10:35:42;11.70;99.90
10249;DHT22;5169;50.560;9.714;2023-04-24T10:38:21;11.70;99.90
10249;DHT22;5169;50.560;9.714;2023-04-24T10:40:51;11.60;99.90
10249;DHT22;5169;50.560;9.714;2023-04-24T10:43:17;11.70;99.90
10249;DHT22;5169;50.560;9.714;2023-04-24T10:46:01;11.70;99.90
10249;DHT22;5169;50.560;9.714;2023-04-24T10:48:30;11.70;99.90
10249;DHT22;5169;50.560;9.714;2023-04-24T10:51:05;11.70;99.90
10249;DHT22;5169;50.560;9.714;2023-04-24T10:53:38;11.70;99.90
10249;DHT22;5169;50.560;9.714;2023-04-24T10:56:06;11.80;99.90
10249;DHT22;5169;50.560;9.714;2023-04-24T10:58:41;11.90;99.90
10249;DHT22;5169;50.560;9.714;2023-04-24T11:01:30;12.20;99.90
10249;DHT22;5169;50.560;9.714;2023-04-24T11:04:01;12.60;99.90
10249;DHT22;5169;50.560;9.714;2023-04-24T11:06:36;12.60;99.90
10249;DHT22;5169;50.560;9.714;2023-04-24T11:09:26;12.50;99.90
10249;DHT22;5169;50.560;9.714;2023-04-24T11:12:23;12.50;99.90
10249;DHT22;5169;50.560;9.714;2023-04-24T11:15:01;12.50;99.90
10249;DHT22;5169;50.560;9.714;2023-04-24T11:17:50;12.60;99.90
10249;DHT22;5169;50.560;9.714;2023-04-24T11:20:27;12.80;99.90
10249;DHT22;5169;50.560;9.714;2023-04-24T11:22:53;14.30;99.90
10249;DHT22;5169;50.560;9.714;2023-04-24T11:25:30;14.40;99.90
10249;DHT22;5169;50.560;9.714;2023-04-24T11:28:14;14.10;99.90
10249;DHT22;5169;50.560;9.714;2023-04-24T11:30:41;14.10;99.90
10249;DHT22;5169;50.560;9.714;2023-04-24T11:33:06;13.70;99.90
10249;DHT22;5169;50.560;9.714;2023-04-24T11:35:40;13.40;99.90
10249;DHT22;5169;50.560;9.714;2023-04-24T11:38:06;12.70;99.90
10249;DHT22;5169;50.560;9.714;2023-04-24T11:40:38;12.20;99.90
10249;DHT22;5169;50.560;9.714;2023-04-24T11:43:04;12.10;99.90
10249;DHT22;5169;50.560;9.714;2023-04-24T11:45:31;11.60;99.90
10249;DHT22;5169;50.560;9.714;2023-04-24T11:48:05;11.20;99.90
10249;DHT22;5169;50.560;9.714;2023-04-24T11:50:31;10.90;99.90
10249;DHT22;5169;50.560;9.714;2023-04-24T11:53:04;10.70;99.90
10249;DHT22;5169;50.560;9.714;2023-04-24T11:55:29;10.50;99.90
10249;DHT22;5169;50.560;9.714;2023-04-24T11:57:57;10.30;99.90
10249;DHT22;5169;50.560;9.714;2023-04-24T12:00:27;10.10;99.90
10249;DHT22;5169;50.560;9.714;2023-04-24T12:05:52;9.70;99.90
10249;DHT22;5169;50.560;9.714;2023-04-24T12:08:29;9.80;99.90
10249;DHT22;5169;50.560;9.714;2023-04-24T12:10:55;10.10;99.90
10249;DHT22;5169;50.560;9.714;2023-04-24T12:13:27;10.40;99.90
10249;DHT22;5169;50.560;9.714;2023-04-24T12:15:53;10.50;99.90
10249;DHT22;5169;50.560;9.714;2023-04-24T12:18:25;10.50;99.90
10249;DHT22;5169;50.560;9.714;2023-04-24T12:20:53;10.50;99.90
10249;DHT22;5169;50.560;9.714;2023-04-24T12:23:37;10.60;99.90
10249;DHT22;5169;50.560;9.714;2023-04-24T12:26:05;10.90;99.90
10249;DHT22;5169;50.560;9.714;2023-04-24T12:28:38;11.20;99.90
10249;DHT22;5169;50.560;9.714;2023-04-24T12:31:04;11.20;99.90
10249;DHT22;5169;50.560;9.714;2023-04-24T12:33:38;11.10;99.90
10249;DHT22;5169;50.560;9.714;2023-04-24T12:36:04;11.20;99.90
10249;DHT22;5169;50.560;9.714;2023-04-24T12:38:31;11.10;99.90
10249;DHT22;5169;50.560;9.714;2023-04-24T12:41:14;11.10;99.90
10249;DHT22;5169;50.560;9.714;2023-04-24T12:43:53;11.30;99.90
10249;DHT22;5169;50.560;9.714;2023-04-24T12:46:27;11.30;99.90
10249;DHT22;5169;50.560;9.714;2023-04-24T12:48:55;11.50;99.90
10249;DHT22;5169;50.560;9.714;2023-04-24T12:51:27;11.50;99.90
10249;DHT22;5169;50.560;9.714;2023-04-24T12:53:52;11.60;99.90
10249;DHT22;5169;50.560;9.714;2023-04-24T12:56:20;11.70;99.90
10249;DHT22;5169;50.560;9.714;2023-04-24T12:58:49;11.90;99.90
10249;DHT22;5169;50.560;9.714;2023-04-24T13:01:14;11.80;99.90
10249;DHT22;5169;50.560;9.714;2023-04-24T13:03:40;12.00;99.90
10249;DHT22;5169;50.560;9.714;2023-04-24T13:06:18;11.80;99.90
10249;DHT22;5169;50.560;9.714;2023-04-24T13:08:51;11.80;99.90
10249;DHT22;5169;50.560;9.714;2023-04-24T13:11:17;12.00;99.90
10249;DHT22;5169;50.560;9.714;2023-04-24T13:13:50;12.20;99.90
10249;DHT22;5169;50.560;9.714;2023-04-24T13:16:20;12.20;99.90
10249;DHT22;5169;50.560;9.714;2023-04-24T13:18:49;12.00;99.90
10249;DHT22;5169;50.560;9.714;2023-04-24T13:21:17;11.70;99.90
10249;DHT22;5169;50.560;9.714;2023-04-24T13:23:43;11.40;99.90
10249;DHT22;5169;50.560;9.714;2023-04-24T13:26:17;11.30;99.90
10249;DHT22;5169;50.560;9.714;2023-04-24T13:28:42;11.20;99.90
10249;DHT22;5169;50.560;9.714;2023-04-24T13:31:13;10.90;99.90
10249;DHT22;5169;50.560;9.714;2023-04-24T13:33:39;11.00;99.90
10249;DHT22;5169;50.560;9.714;2023-04-24T13:36:07;11.10;99.90
10249;DHT22;5169;50.560;9.714;2023-04-24T13:38:42;11.20;99.90
10249;DHT22;5169;50.560;9.714;2023-04-24T13:41:18;11.40;99.90
10249;DHT22;5169;50.560;9.714;2023-04-24T13:43:44;11.80;99.90
10249;DHT22;5169;50.560;9.714;2023-04-24T13:46:09;12.20;99.90
10249;DHT22;5169;50.560;9.714;2023-04-24T13:48:38;12.10;99.90
10249;DHT22;5169;50.560;9.714;2023-04-24T13:51:04;12.00;99.90
10249;DHT22;5169;50.560;9.714;2023-04-24T13:53:32;11.80;99.90
10249;DHT22;5169;50.560;9.714;2023-04-24T13:56:02;11.90;99.90
10249;DHT22;5169;50.560;9.714;2023-04-24T13:58:28;11.90;99.90
10249;DHT22;5169;50.560;9.714;2023-04-24T14:00:53;11.90;99.90
10249;DHT22;5169;50.560;9.714;2023-04-24T14:03:19;11.90;99.90
10249;DHT22;5169;50.560;9.714;2023-04-24T14:05:44;11.80;99.90
10249;DHT22;5169;50.560;9.714;2023-04-24T14:08:10;11.60;99.90
10249;DHT22;5169;50.560;9.714;2023-04-24T14:10:39;11.40;99.90
10249;DHT22;5169;50.560;9.714;2023-04-24T14:13:05;11.40;99.90
10249;DHT22;5169;50.560;9.714;2023-04-24T14:15:31;11.40;99.90
10249;DHT22;5169;50.560;9.714;2023-04-24T14:17:56;11.50;99.90
10249;DHT22;5169;50.560;9.714;2023-04-24T14:20:22;11.70;99.90
10249;DHT22;5169;50.560;9.714;2023-04-24T14:22:56;11.80;99.90
10249;DHT22;5169;50.560;9.714;2023-04-24T14:25:30;11.70;99.90
10249;DHT22;5169;50.560;9.714;2023-04-24T14:27:56;11.70;99.90
10249;DHT22;5169;50.560;9.714;2023-04-24T14:30:21;11.70;99.90
10249;DHT22;5169;50.560;9.714;2023-04-24T14:32:54;11.80;99.90
10249;DHT22;5169;50.560;9.714;2023-04-24T14:35:20;11.80;99.90
10249;DHT22;5169;50.560;9.714;2023-04-24T14:37:45;11.80;99.90
10249;DHT22;5169;50.560;9.714;2023-04-24T14:40:18;11.80;99.90
10249;DHT22;5169;50.560;9.714;2023-04-24T14:42:46;11.80;99.90
10249;DHT22;5169;50.560;9.714;2023-04-24T14:45:18;11.90;99.90
10249;DHT22;5169;50.560;9.714;2023-04-24T14:47:46;11.90;99.90
10249;DHT22;5169;50.560;9.714;2023-04-24T14:50:15;11.90;99.90
10249;DHT22;5169;50.560;9.714;2023-04-24T14:52:41;11.80;99.90
10249;DHT22;5169;50.560;9.714;2023-04-24T14:55:07;11.70;99.90
10249;DHT22;5169;50.560;9.714;2023-04-24T14:57:35;11.50;99.90
10249;DHT22;5169;50.560;9.714;2023-04-24T15:00:17;11.30;99.90
10249;DHT22;5169;50.560;9.714;2023-04-24T15:02:42;11.20;99.90
10249;DHT22;5169;50.560;9.714;2023-04-24T15:05:10;11.20;99.90
10249;DHT22;5169;50.560;9.714;2023-04-24T15:07:43;11.10;99.90
10249;DHT22;5169;50.560;9.714;2023-04-24T15:10:11;10.80;99.90
10249;DHT22;5169;50.560;9.714;2023-04-24T15:12:43;10.80;99.90
10249;DHT22;5169;50.560;9.714;2023-04-24T15:15:09;10.70;99.90
10249;DHT22;5169;50.560;9.714;2023-04-24T15:17:41;10.70;99.90
10249;DHT22;5169;50.560;9.714;2023-04-24T15:20:07;10.80;99.90
10249;DHT22;5169;50.560;9.714;2023-04-24T15:22:33;10.80;99.90
10249;DHT22;5169;50.560;9.714;2023-04-24T15:24:58;10.70;99.90
10249;DHT22;5169;50.560;9.714;2023-04-24T15:27:42;10.80;99.90
10249;DHT22;5169;50.560;9.714;2023-04-24T15:30:08;10.90;99.90
10249;DHT22;5169;50.560;9.714;2023-04-24T15:32:34;11.00;99.90
10249;DHT22;5169;50.560;9.714;2023-04-24T15:35:03;10.90;99.90
10249;DHT22;5169;50.560;9.714;2023-04-24T15:37:29;10.90;99.90
10249;DHT22;5169;50.560;9.714;2023-04-24T15:39:55;11.00;99.90
10249;DHT22;5169;50.560;9.714;2023-04-24T15:42:21;11.10;99.90
10249;DHT22;5169;50.560;9.714;2023-04-24T15:44:51;11.30;99.90
10249;DHT22;5169;50.560;9.714;2023-04-24T15:47:20;11.50;99.90
10249;DHT22;5169;50.560;9.714;2023-04-24T15:49:45;11.50;99.90
10249;DHT22;5169;50.560;9.714;2023-04-24T15:52:18;11.40;99.90
10249;DHT22;5169;50.560;9.714;2023-04-24T15:54:46;11.40;99.90
10249;DHT22;5169;50.560;9.714;2023-04-24T15:57:18;11.50;99.90